createdAt,value
2019-05-06T09:04:16.553Z,14.70
2019-05-06T09:06:45.745Z,14.40
2019-05-06T09:09:14.779Z,14.20
2019-05-06T09:11:43.930Z,14.30
2019-05-06T09:14:14.074Z,14.00
2019-05-06T09:16:44.010Z,14.10
2019-05-06T09:19:13.329Z,14.30
2019-05-06T09:21:45.648Z,14.00
2019-05-06T09:24:13.198Z,13.90
2019-05-06T09:26:52.028Z,13.90
2019-05-06T09:29:27.749Z,14.00
2019-05-06T09:31:58.843Z,14.00
2019-05-06T09:34:37.026Z,14.30
2019-05-06T09:37:16.305Z,14.60
2019-05-06T09:39:46.371Z,14.40
2019-05-06T09:42:15.885Z,14.20
2019-05-06T09:44:46.208Z,14.30
2019-05-06T09:47:33.151Z,14.80
2019-05-06T09:50:02.866Z,15.00
2019-05-06T09:52:33.270Z,15.00
2019-05-06T10:00:34.582Z,15.10
2019-05-06T10:05:32.802Z,15.40
2019-05-06T10:53:33.093Z,15.60
2019-05-06T10:56:12.717Z,16.00
2019-05-06T10:58:44.021Z,15.80
2019-05-06T12:31:50.198Z,15.90
2019-05-06T12:34:19.125Z,15.50
2019-05-06T12:36:52.604Z,15.20
2019-05-06T12:39:27.277Z,15.10
2019-05-06T12:42:15.399Z,14.90
2019-05-06T12:45:13.254Z,15.00
2019-05-06T12:47:55.794Z,15.50
2019-05-06T12:50:24.890Z,16.10
2019-05-06T12:52:57.552Z,16.10
2019-05-06T12:55:25.574Z,16.10
2019-05-06T12:57:54.904Z,16.20
2019-05-06T13:00:24.814Z,16.60
2019-05-06T13:02:53.786Z,16.30
2019-05-06T13:05:23.270Z,16.30
2019-05-06T13:07:52.830Z,15.80
2019-05-06T13:10:23.263Z,16.40
2019-05-06T13:13:05.197Z,16.30
2019-05-06T13:15:34.327Z,15.50
2019-05-06T13:18:07.127Z,15.10
2019-05-06T13:20:35.820Z,15.10
2019-05-06T13:23:29.930Z,15.40
2019-05-06T13:25:59.258Z,15.70
2019-05-06T13:28:33.157Z,15.80
2019-05-06T13:31:16.448Z,15.80
2019-05-06T13:33:45.483Z,15.80
2019-05-06T13:36:14.647Z,15.60
2019-05-06T13:38:43.666Z,15.40
2019-05-06T13:41:12.797Z,15.10
2019-05-06T13:43:54.182Z,15.00
2019-05-06T13:46:29.142Z,14.80
2019-05-06T13:49:15.911Z,14.80
2019-05-06T13:51:52.296Z,14.80
2019-05-06T13:54:22.350Z,14.90
2019-05-06T13:56:52.229Z,14.60
2019-05-06T13:59:21.314Z,14.50
2019-05-06T14:01:56.716Z,14.50
2019-05-06T14:04:25.851Z,14.50
2019-05-06T14:06:54.791Z,14.20
2019-05-06T14:09:32.028Z,14.30
2019-05-06T14:11:54.352Z,14.40
2019-05-06T14:14:23.595Z,14.30
2019-05-06T14:16:53.351Z,14.20
2019-05-06T14:19:22.636Z,14.10
2019-05-06T14:21:52.347Z,13.90
2019-05-06T14:24:22.217Z,13.70
2019-05-06T14:26:58.958Z,13.90
2019-05-06T14:29:34.858Z,14.10
2019-05-06T14:32:03.973Z,13.90
2019-05-06T14:34:33.039Z,14.10
2019-05-06T14:37:02.023Z,14.00
2019-05-06T14:39:48.658Z,14.10
2019-05-06T14:42:05.048Z,13.90
2019-05-06T14:44:34.024Z,14.30
2019-05-06T14:47:12.618Z,14.70
2019-05-06T14:49:43.253Z,14.50
2019-05-06T14:52:13.393Z,14.00
2019-05-06T14:54:53.248Z,13.70
2019-05-06T14:57:23.195Z,13.80
2019-05-06T14:59:55.511Z,13.80
2019-05-06T15:02:26.835Z,13.40
2019-05-06T15:04:56.223Z,13.00
2019-05-06T15:07:26.045Z,12.90
2019-05-06T15:10:07.833Z,12.80
2019-05-06T15:12:25.901Z,12.90
2019-05-06T15:14:55.140Z,12.80
2019-05-06T15:17:24.256Z,12.70
2019-05-06T15:19:53.348Z,12.80
2019-05-06T15:22:22.904Z,12.80
2019-05-06T15:24:53.530Z,12.90
2019-05-06T15:27:23.097Z,12.80
2019-05-06T15:29:56.080Z,12.70
2019-05-06T15:32:38.805Z,12.60
2019-05-06T15:35:41.747Z,12.60
2019-05-06T15:38:15.384Z,12.70
2019-05-06T15:40:44.612Z,12.80
2019-05-06T15:43:13.857Z,12.80
2019-05-06T15:45:43.049Z,12.80
2019-05-06T15:48:12.888Z,12.70
2019-05-06T15:50:45.392Z,12.60
2019-05-06T15:53:13.313Z,12.70
2019-05-06T15:55:43.689Z,12.70
2019-05-06T15:58:12.985Z,12.70
2019-05-06T16:00:42.496Z,12.60
2019-05-06T16:03:12.956Z,12.00
2019-05-06T16:05:43.741Z,11.70
2019-05-06T16:08:13.034Z,11.50
